sensor_id;sensor_type;location;lat;lon;timestamp;temperature;humidity
68235;DHT22;55052;52.056;5.296;2023-01-01T00:00:40;16.20;70.60
68235;DHT22;55052;52.056;5.296;2023-01-01T00:03:07;16.20;71.50
68235;DHT22;55052;52.056;5.296;2023-01-01T00:05:37;16.20;70.40
68235;DHT22;55052;52.056;5.296;2023-01-01T00:08:04;16.20;70.50
68235;DHT22;55052;52.056;5.296;2023-01-01T00:10:31;16.20;70.30
68235;DHT22;55052;52.056;5.296;2023-01-01T00:12:59;16.20;70.50
68235;DHT22;55052;52.056;5.296;2023-01-01T00:15:26;16.20;70.50
68235;DHT22;55052;52.056;5.296;2023-01-01T00:17:53;16.20;70.70
68235;DHT22;55052;52.056;5.296;2023-01-01T00:20:20;16.20;70.40
68235;DHT22;55052;52.056;5.296;2023-01-01T00:22:47;16.20;70.50
68235;DHT22;55052;52.056;5.296;2023-01-01T00:25:22;16.20;70.60
68235;DHT22;55052;52.056;5.296;2023-01-01T00:27:49;16.10;70.10
68235;DHT22;55052;52.056;5.296;2023-01-01T00:30:16;16.10;69.90
68235;DHT22;55052;52.056;5.296;2023-01-01T00:32:43;16.10;69.90
68235;DHT22;55052;52.056;5.296;2023-01-01T00:35:20;16.20;70.30
68235;DHT22;55052;52.056;5.296;2023-01-01T00:37:47;16.20;70.30
68235;DHT22;55052;52.056;5.296;2023-01-01T00:40:14;16.20;70.50
68235;DHT22;55052;52.056;5.296;2023-01-01T00:42:41;16.20;70.40
68235;DHT22;55052;52.056;5.296;2023-01-01T00:45:08;16.20;70.30
68235;DHT22;55052;52.056;5.296;2023-01-01T00:47:36;16.20;70.20
68235;DHT22;55052;52.056;5.296;2023-01-01T00:50:04;16.20;70.10
68235;DHT22;55052;52.056;5.296;2023-01-01T00:52:30;16.20;70.00
68235;DHT22;55052;52.056;5.296;2023-01-01T00:54:57;16.20;69.70
68235;DHT22;55052;52.056;5.296;2023-01-01T00:57:24;16.20;69.90
68235;DHT22;55052;52.056;5.296;2023-01-01T00:59:51;16.30;69.90
68235;DHT22;55052;52.056;5.296;2023-01-01T01:02:17;16.20;69.70
68235;DHT22;55052;52.056;5.296;2023-01-01T01:04:44;16.20;69.60
68235;DHT22;55052;52.056;5.296;2023-01-01T01:07:11;16.20;69.30
68235;DHT22;55052;52.056;5.296;2023-01-01T01:09:38;16.20;69.30
68235;DHT22;55052;52.056;5.296;2023-01-01T01:12:05;16.20;69.40
68235;DHT22;55052;52.056;5.296;2023-01-01T01:14:44;16.20;69.30
68235;DHT22;55052;52.056;5.296;2023-01-01T01:17:11;16.20;69.60
68235;DHT22;55052;52.056;5.296;2023-01-01T01:19:38;16.20;69.50
68235;DHT22;55052;52.056;5.296;2023-01-01T01:22:05;16.20;69.60
68235;DHT22;55052;52.056;5.296;2023-01-01T01:24:32;16.20;69.60
68235;DHT22;55052;52.056;5.296;2023-01-01T01:26:58;16.20;69.60
68235;DHT22;55052;52.056;5.296;2023-01-01T01:29:25;16.20;70.80
68235;DHT22;55052;52.056;5.296;2023-01-01T01:31:52;16.10;70.20
68235;DHT22;55052;52.056;5.296;2023-01-01T01:34:19;16.10;70.70
68235;DHT22;55052;52.056;5.296;2023-01-01T01:36:53;16.10;71.10
68235;DHT22;55052;52.056;5.296;2023-01-01T01:39:20;16.00;71.20
68235;DHT22;55052;52.056;5.296;2023-01-01T01:41:47;15.90;71.10
68235;DHT22;55052;52.056;5.296;2023-01-01T01:47:26;15.90;71.20
68235;DHT22;55052;52.056;5.296;2023-01-01T01:50:43;15.80;71.50
68235;DHT22;55052;52.056;5.296;2023-01-01T01:55:33;15.80;71.20
68235;DHT22;55052;52.056;5.296;2023-01-01T01:58:01;15.80;71.50
68235;DHT22;55052;52.056;5.296;2023-01-01T02:00:29;15.70;71.60
68235;DHT22;55052;52.056;5.296;2023-01-01T02:03:06;15.70;71.50
68235;DHT22;55052;52.056;5.296;2023-01-01T02:05:34;15.70;71.30
68235;DHT22;55052;52.056;5.296;2023-01-01T02:08:02;15.70;71.60
68235;DHT22;55052;52.056;5.296;2023-01-01T02:10:30;15.60;71.40
68235;DHT22;55052;52.056;5.296;2023-01-01T02:12:58;15.60;71.60
68235;DHT22;55052;52.056;5.296;2023-01-01T02:15:31;15.60;71.30
68235;DHT22;55052;52.056;5.296;2023-01-01T02:18:02;15.60;71.50
68235;DHT22;55052;52.056;5.296;2023-01-01T02:28:48;15.60;71.60
68235;DHT22;55052;52.056;5.296;2023-01-01T02:31:24;15.50;71.50
68235;DHT22;55052;52.056;5.296;2023-01-01T02:33:55;15.50;71.50
68235;DHT22;55052;52.056;5.296;2023-01-01T02:36:25;15.50;71.50
68235;DHT22;55052;52.056;5.296;2023-01-01T02:38:55;15.50;71.50
68235;DHT22;55052;52.056;5.296;2023-01-01T02:41:38;15.50;71.50
68235;DHT22;55052;52.056;5.296;2023-01-01T02:44:06;15.50;71.60
68235;DHT22;55052;52.056;5.296;2023-01-01T02:46:34;15.50;71.50
68235;DHT22;55052;52.056;5.296;2023-01-01T02:49:02;15.50;71.50
68235;DHT22;55052;52.056;5.296;2023-01-01T03:02:28;15.40;71.00
68235;DHT22;55052;52.056;5.296;2023-01-01T03:19:11;15.40;70.70
68235;DHT22;55052;52.056;5.296;2023-01-01T03:24:34;15.40;70.30
68235;DHT22;55052;52.056;5.296;2023-01-01T03:27:14;15.50;70.00
68235;DHT22;55052;52.056;5.296;2023-01-01T03:29:43;15.50;70.00
68235;DHT22;55052;52.056;5.296;2023-01-01T03:32:14;15.50;70.00
68235;DHT22;55052;52.056;5.296;2023-01-01T03:34:51;15.50;69.90
68235;DHT22;55052;52.056;5.296;2023-01-01T03:37:24;15.50;69.90
68235;DHT22;55052;52.056;5.296;2023-01-01T03:39:55;15.50;69.90
68235;DHT22;55052;52.056;5.296;2023-01-01T03:42:35;15.50;69.80
68235;DHT22;55052;52.056;5.296;2023-01-01T03:45:05;15.50;69.80
68235;DHT22;55052;52.056;5.296;2023-01-01T03:47:35;15.50;69.90
68235;DHT22;55052;52.056;5.296;2023-01-01T03:50:02;15.50;69.70
68235;DHT22;55052;52.056;5.296;2023-01-01T03:52:50;15.60;69.80
68235;DHT22;55052;52.056;5.296;2023-01-01T03:55:30;15.60;69.50
68235;DHT22;55052;52.056;5.296;2023-01-01T04:00:54;15.60;70.10
68235;DHT22;55052;52.056;5.296;2023-01-01T04:03:24;15.50;70.60
68235;DHT22;55052;52.056;5.296;2023-01-01T04:05:52;15.50;70.70
68235;DHT22;55052;52.056;5.296;2023-01-01T04:08:19;15.50;71.10
68235;DHT22;55052;52.056;5.296;2023-01-01T04:10:56;15.50;71.40
68235;DHT22;55052;52.056;5.296;2023-01-01T04:13:24;15.40;71.50
68235;DHT22;55052;52.056;5.296;2023-01-01T04:15:51;15.40;72.70
68235;DHT22;55052;52.056;5.296;2023-01-01T04:18:18;15.30;73.10
68235;DHT22;55052;52.056;5.296;2023-01-01T04:20:44;15.20;73.90
68235;DHT22;55052;52.056;5.296;2023-01-01T04:23:11;15.10;74.60
68235;DHT22;55052;52.056;5.296;2023-01-01T04:25:38;15.00;75.20
68235;DHT22;55052;52.056;5.296;2023-01-01T04:28:05;14.90;75.80
68235;DHT22;55052;52.056;5.296;2023-01-01T04:30:31;14.80;76.30
68235;DHT22;55052;52.056;5.296;2023-01-01T04:32:58;14.80;76.90
68235;DHT22;55052;52.056;5.296;2023-01-01T04:35:25;14.70;77.40
68235;DHT22;55052;52.056;5.296;2023-01-01T04:37:51;14.60;78.00
68235;DHT22;55052;52.056;5.296;2023-01-01T04:40:18;14.60;78.40
68235;DHT22;55052;52.056;5.296;2023-01-01T04:42:45;14.50;78.80
68235;DHT22;55052;52.056;5.296;2023-01-01T04:45:12;14.40;79.20
68235;DHT22;55052;52.056;5.296;2023-01-01T04:47:41;14.40;79.60
68235;DHT22;55052;52.056;5.296;2023-01-01T04:50:08;14.30;80.00
68235;DHT22;55052;52.056;5.296;2023-01-01T04:52:35;14.30;80.10
68235;DHT22;55052;52.056;5.296;2023-01-01T04:55:02;14.20;80.30
68235;DHT22;55052;52.056;5.296;2023-01-01T04:57:29;14.20;80.40
68235;DHT22;55052;52.056;5.296;2023-01-01T04:59:56;14.20;80.60
68235;DHT22;55052;52.056;5.296;2023-01-01T05:02:23;14.20;80.50
68235;DHT22;55052;52.056;5.296;2023-01-01T05:04:50;14.20;80.50
68235;DHT22;55052;52.056;5.296;2023-01-01T05:07:17;14.20;80.30
68235;DHT22;55052;52.056;5.296;2023-01-01T05:09:43;14.20;80.30
68235;DHT22;55052;52.056;5.296;2023-01-01T05:12:10;14.20;80.20
68235;DHT22;55052;52.056;5.296;2023-01-01T05:14:37;14.20;79.70
68235;DHT22;55052;52.056;5.296;2023-01-01T05:17:04;14.20;79.60
68235;DHT22;55052;52.056;5.296;2023-01-01T05:19:30;14.20;79.00
68235;DHT22;55052;52.056;5.296;2023-01-01T05:21:57;14.20;79.10
68235;DHT22;55052;52.056;5.296;2023-01-01T05:24:24;14.20;78.60
68235;DHT22;55052;52.056;5.296;2023-01-01T05:26:51;14.20;79.30
68235;DHT22;55052;52.056;5.296;2023-01-01T05:29:18;14.20;78.30
68235;DHT22;55052;52.056;5.296;2023-01-01T05:31:45;14.20;78.20
68235;DHT22;55052;52.056;5.296;2023-01-01T05:34:13;14.20;78.20
68235;DHT22;55052;52.056;5.296;2023-01-01T05:36:40;14.30;78.20
68235;DHT22;55052;52.056;5.296;2023-01-01T05:39:09;14.20;78.20
68235;DHT22;55052;52.056;5.296;2023-01-01T05:41:37;14.20;78.30
68235;DHT22;55052;52.056;5.296;2023-01-01T05:44:06;14.20;77.90
68235;DHT22;55052;52.056;5.296;2023-01-01T05:46:34;14.20;77.50
68235;DHT22;55052;52.056;5.296;2023-01-01T05:49:01;14.20;76.70
68235;DHT22;55052;52.056;5.296;2023-01-01T05:51:28;14.20;76.50
68235;DHT22;55052;52.056;5.296;2023-01-01T05:53:56;14.20;75.10
68235;DHT22;55052;52.056;5.296;2023-01-01T05:56:24;14.20;75.50
68235;DHT22;55052;52.056;5.296;2023-01-01T05:58:51;14.20;74.90
68235;DHT22;55052;52.056;5.296;2023-01-01T06:01:20;14.20;74.60
68235;DHT22;55052;52.056;5.296;2023-01-01T06:03:48;14.20;74.40
68235;DHT22;55052;52.056;5.296;2023-01-01T06:06:18;14.20;74.10
68235;DHT22;55052;52.056;5.296;2023-01-01T06:08:59;14.20;74.00
68235;DHT22;55052;52.056;5.296;2023-01-01T06:11:27;14.10;73.80
68235;DHT22;55052;52.056;5.296;2023-01-01T06:13:56;14.10;73.90
68235;DHT22;55052;52.056;5.296;2023-01-01T06:16:23;14.10;73.80
68235;DHT22;55052;52.056;5.296;2023-01-01T06:18:50;14.10;73.70
68235;DHT22;55052;52.056;5.296;2023-01-01T06:21:23;14.10;73.60
68235;DHT22;55052;52.056;5.296;2023-01-01T06:23:50;14.10;73.20
68235;DHT22;55052;52.056;5.296;2023-01-01T06:26:20;14.10;73.00
68235;DHT22;55052;52.056;5.296;2023-01-01T06:28:48;14.00;72.90
68235;DHT22;55052;52.056;5.296;2023-01-01T06:31:17;14.00;72.90
68235;DHT22;55052;52.056;5.296;2023-01-01T06:33:44;14.00;72.40
68235;DHT22;55052;52.056;5.296;2023-01-01T06:36:14;13.90;72.30
68235;DHT22;55052;52.056;5.296;2023-01-01T06:38:44;13.90;72.00
68235;DHT22;55052;52.056;5.296;2023-01-01T06:41:19;13.90;71.90
68235;DHT22;55052;52.056;5.296;2023-01-01T06:43:47;13.90;72.20
68235;DHT22;55052;52.056;5.296;2023-01-01T06:46:25;13.90;71.90
68235;DHT22;55052;52.056;5.296;2023-01-01T06:48:57;13.90;71.90
68235;DHT22;55052;52.056;5.296;2023-01-01T06:51:27;13.80;71.80
68235;DHT22;55052;52.056;5.296;2023-01-01T06:53:58;13.80;71.80
68235;DHT22;55052;52.056;5.296;2023-01-01T06:56:25;13.80;71.70
68235;DHT22;55052;52.056;5.296;2023-01-01T06:58:52;13.80;71.70
68235;DHT22;55052;52.056;5.296;2023-01-01T07:01:25;13.70;71.70
68235;DHT22;55052;52.056;5.296;2023-01-01T07:03:58;13.70;71.30
68235;DHT22;55052;52.056;5.296;2023-01-01T07:06:27;13.70;71.50
68235;DHT22;55052;52.056;5.296;2023-01-01T07:08:54;13.70;71.40
68235;DHT22;55052;52.056;5.296;2023-01-01T07:11:21;13.60;71.70
68235;DHT22;55052;52.056;5.296;2023-01-01T07:13:48;13.60;71.30
68235;DHT22;55052;52.056;5.296;2023-01-01T07:16:15;13.60;71.60
68235;DHT22;55052;52.056;5.296;2023-01-01T07:18:42;13.60;71.60
68235;DHT22;55052;52.056;5.296;2023-01-01T07:23:56;13.50;71.80
68235;DHT22;55052;52.056;5.296;2023-01-01T07:26:24;13.50;71.90
68235;DHT22;55052;52.056;5.296;2023-01-01T07:28:51;13.50;71.90
68235;DHT22;55052;52.056;5.296;2023-01-01T07:31:18;13.50;72.00
68235;DHT22;55052;52.056;5.296;2023-01-01T07:33:45;13.40;72.00
68235;DHT22;55052;52.056;5.296;2023-01-01T07:36:12;13.40;72.10
68235;DHT22;55052;52.056;5.296;2023-01-01T07:38:39;13.40;72.20
68235;DHT22;55052;52.056;5.296;2023-01-01T07:41:05;13.30;72.20
68235;DHT22;55052;52.056;5.296;2023-01-01T07:43:33;13.30;72.30
68235;DHT22;55052;52.056;5.296;2023-01-01T07:46:01;13.30;72.40
68235;DHT22;55052;52.056;5.296;2023-01-01T07:48:28;13.20;72.40
68235;DHT22;55052;52.056;5.296;2023-01-01T07:51:03;13.20;72.70
68235;DHT22;55052;52.056;5.296;2023-01-01T07:53:30;13.20;72.80
68235;DHT22;55052;52.056;5.296;2023-01-01T07:55:56;13.10;72.90
68235;DHT22;55052;52.056;5.296;2023-01-01T07:58:23;13.10;72.80
68235;DHT22;55052;52.056;5.296;2023-01-01T08:00:50;13.10;72.40
68235;DHT22;55052;52.056;5.296;2023-01-01T08:03:17;13.00;72.60
68235;DHT22;55052;52.056;5.296;2023-01-01T08:05:44;13.00;72.80
68235;DHT22;55052;52.056;5.296;2023-01-01T08:08:11;13.00;72.70
68235;DHT22;55052;52.056;5.296;2023-01-01T08:10:37;13.00;73.50
68235;DHT22;55052;52.056;5.296;2023-01-01T08:13:06;12.90;72.70
68235;DHT22;55052;52.056;5.296;2023-01-01T08:15:33;12.90;72.50
68235;DHT22;55052;52.056;5.296;2023-01-01T08:18:02;12.90;72.50
68235;DHT22;55052;52.056;5.296;2023-01-01T08:20:30;12.90;72.70
68235;DHT22;55052;52.056;5.296;2023-01-01T08:22:57;12.80;72.70
68235;DHT22;55052;52.056;5.296;2023-01-01T08:25:32;12.80;72.90
68235;DHT22;55052;52.056;5.296;2023-01-01T08:27:59;12.80;73.10
68235;DHT22;55052;52.056;5.296;2023-01-01T08:30:26;12.80;73.10
68235;DHT22;55052;52.056;5.296;2023-01-01T08:32:53;12.80;73.30
68235;DHT22;55052;52.056;5.296;2023-01-01T08:35:19;12.70;73.40
68235;DHT22;55052;52.056;5.296;2023-01-01T08:37:46;12.80;73.60
68235;DHT22;55052;52.056;5.296;2023-01-01T08:40:14;12.80;73.70
68235;DHT22;55052;52.056;5.296;2023-01-01T08:42:41;12.80;73.90
68235;DHT22;55052;52.056;5.296;2023-01-01T08:45:08;12.70;74.00
68235;DHT22;55052;52.056;5.296;2023-01-01T08:47:35;12.80;74.10
68235;DHT22;55052;52.056;5.296;2023-01-01T08:50:02;12.80;74.30
68235;DHT22;55052;52.056;5.296;2023-01-01T08:52:29;12.80;74.40
68235;DHT22;55052;52.056;5.296;2023-01-01T08:54:55;12.80;74.50
68235;DHT22;55052;52.056;5.296;2023-01-01T08:57:22;12.80;74.60
68235;DHT22;55052;52.056;5.296;2023-01-01T08:59:49;12.80;74.70
68235;DHT22;55052;52.056;5.296;2023-01-01T09:02:15;12.80;74.80
68235;DHT22;55052;52.056;5.296;2023-01-01T09:04:42;12.80;74.90
68235;DHT22;55052;52.056;5.296;2023-01-01T09:07:09;12.80;75.00
68235;DHT22;55052;52.056;5.296;2023-01-01T09:09:36;12.80;75.00
68235;DHT22;55052;52.056;5.296;2023-01-01T09:12:03;12.80;75.10
68235;DHT22;55052;52.056;5.296;2023-01-01T09:14:32;12.80;75.20
68235;DHT22;55052;52.056;5.296;2023-01-01T09:16:59;12.80;75.30
68235;DHT22;55052;52.056;5.296;2023-01-01T09:19:26;12.80;75.30
68235;DHT22;55052;52.056;5.296;2023-01-01T09:21:53;12.80;75.30
68235;DHT22;55052;52.056;5.296;2023-01-01T09:24:20;12.80;75.50
68235;DHT22;55052;52.056;5.296;2023-01-01T09:26:47;12.90;75.50
68235;DHT22;55052;52.056;5.296;2023-01-01T09:29:15;12.90;75.60
68235;DHT22;55052;52.056;5.296;2023-01-01T09:31:49;12.90;75.80
68235;DHT22;55052;52.056;5.296;2023-01-01T09:34:16;12.90;75.80
68235;DHT22;55052;52.056;5.296;2023-01-01T09:36:43;12.90;75.90
68235;DHT22;55052;52.056;5.296;2023-01-01T09:39:12;12.90;76.00
68235;DHT22;55052;52.056;5.296;2023-01-01T09:41:49;12.90;76.00
68235;DHT22;55052;52.056;5.296;2023-01-01T09:44:53;13.00;76.10
68235;DHT22;55052;52.056;5.296;2023-01-01T09:49:55;13.00;76.10
68235;DHT22;55052;52.056;5.296;2023-01-01T09:52:43;13.10;76.50
68235;DHT22;55052;52.056;5.296;2023-01-01T09:55:27;13.10;76.50
68235;DHT22;55052;52.056;5.296;2023-01-01T09:57:55;13.20;76.60
68235;DHT22;55052;52.056;5.296;2023-01-01T10:00:23;13.30;76.50
68235;DHT22;55052;52.056;5.296;2023-01-01T10:13:51;13.50;76.40
68235;DHT22;55052;52.056;5.296;2023-01-01T10:18:53;13.60;76.90
68235;DHT22;55052;52.056;5.296;2023-01-01T10:21:29;13.60;77.00
68235;DHT22;55052;52.056;5.296;2023-01-01T10:24:03;13.60;77.20
68235;DHT22;55052;52.056;5.296;2023-01-01T10:26:33;13.60;77.50
68235;DHT22;55052;52.056;5.296;2023-01-01T10:31:56;13.70;77.90
68235;DHT22;55052;52.056;5.296;2023-01-01T10:34:25;13.70;78.00
68235;DHT22;55052;52.056;5.296;2023-01-01T10:36:59;13.70;78.20
68235;DHT22;55052;52.056;5.296;2023-01-01T10:39:27;13.80;78.40
68235;DHT22;55052;52.056;5.296;2023-01-01T10:41:54;13.90;78.40
68235;DHT22;55052;52.056;5.296;2023-01-01T10:44:33;13.90;78.30
68235;DHT22;55052;52.056;5.296;2023-01-01T10:47:25;13.90;78.20
68235;DHT22;55052;52.056;5.296;2023-01-01T10:50:00;13.90;78.00
68235;DHT22;55052;52.056;5.296;2023-01-01T10:52:33;13.90;77.90
68235;DHT22;55052;52.056;5.296;2023-01-01T10:55:01;13.90;78.70
68235;DHT22;55052;52.056;5.296;2023-01-01T10:57:34;14.00;77.90
68235;DHT22;55052;52.056;5.296;2023-01-01T11:02:38;14.00;77.90
68235;DHT22;55052;52.056;5.296;2023-01-01T11:05:17;14.00;77.90
68235;DHT22;55052;52.056;5.296;2023-01-01T11:07:48;14.00;78.00
68235;DHT22;55052;52.056;5.296;2023-01-01T11:10:20;14.00;78.00
68235;DHT22;55052;52.056;5.296;2023-01-01T11:12:48;14.00;78.20
68235;DHT22;55052;52.056;5.296;2023-01-01T11:18:19;14.00;78.40
68235;DHT22;55052;52.056;5.296;2023-01-01T11:20:54;14.00;78.50
68235;DHT22;55052;52.056;5.296;2023-01-01T11:26:18;14.10;78.90
68235;DHT22;55052;52.056;5.296;2023-01-01T11:29:18;14.10;78.90
68235;DHT22;55052;52.056;5.296;2023-01-01T11:31:46;14.10;79.10
68235;DHT22;55052;52.056;5.296;2023-01-01T11:34:32;14.00;79.10
68235;DHT22;55052;52.056;5.296;2023-01-01T11:39:48;14.00;79.30
68235;DHT22;55052;52.056;5.296;2023-01-01T11:42:27;14.00;79.40
68235;DHT22;55052;52.056;5.296;2023-01-01T11:45:05;14.00;79.50
68235;DHT22;55052;52.056;5.296;2023-01-01T11:47:36;14.00;79.70
68235;DHT22;55052;52.056;5.296;2023-01-01T11:53:15;14.00;80.00
68235;DHT22;55052;52.056;5.296;2023-01-01T11:56:06;14.00;80.10
68235;DHT22;55052;52.056;5.296;2023-01-01T11:58:54;14.00;80.40
68235;DHT22;55052;52.056;5.296;2023-01-01T12:01:26;14.00;80.50
68235;DHT22;55052;52.056;5.296;2023-01-01T12:06:40;14.00;80.80
68235;DHT22;55052;52.056;5.296;2023-01-01T12:14:59;14.10;81.40
68235;DHT22;55052;52.056;5.296;2023-01-01T12:17:54;14.10;81.50
68235;DHT22;55052;52.056;5.296;2023-01-01T12:20:41;14.10;81.70
68235;DHT22;55052;52.056;5.296;2023-01-01T12:23:10;14.20;81.80
68235;DHT22;55052;52.056;5.296;2023-01-01T12:25:43;14.20;81.80
68235;DHT22;55052;52.056;5.296;2023-01-01T12:36:30;14.30;81.70
68235;DHT22;55052;52.056;5.296;2023-01-01T12:41:46;14.40;81.60
68235;DHT22;55052;52.056;5.296;2023-01-01T12:44:47;14.40;81.50
68235;DHT22;55052;52.056;5.296;2023-01-01T13:01:27;14.50;80.30
68235;DHT22;55052;52.056;5.296;2023-01-01T13:04:04;14.50;80.00
68235;DHT22;55052;52.056;5.296;2023-01-01T13:07:06;14.50;79.90
68235;DHT22;55052;52.056;5.296;2023-01-01T13:09:40;14.50;79.30
68235;DHT22;55052;52.056;5.296;2023-01-01T13:12:14;14.50;79.20
68235;DHT22;55052;52.056;5.296;2023-01-01T13:14:44;14.50;79.00
68235;DHT22;55052;52.056;5.296;2023-01-01T13:17:23;14.50;78.80
68235;DHT22;55052;52.056;5.296;2023-01-01T13:19:57;14.50;78.60
68235;DHT22;55052;52.056;5.296;2023-01-01T13:33:27;14.50;77.10
68235;DHT22;55052;52.056;5.296;2023-01-01T13:38:53;14.40;76.90
68235;DHT22;55052;52.056;5.296;2023-01-01T13:41:42;14.40;76.80
68235;DHT22;55052;52.056;5.296;2023-01-01T14:02:47;14.30;78.30
68235;DHT22;55052;52.056;5.296;2023-01-01T14:05:58;14.30;77.70
68235;DHT22;55052;52.056;5.296;2023-01-01T14:08:32;14.30;77.70
68235;DHT22;55052;52.056;5.296;2023-01-01T14:11:00;14.30;78.00
68235;DHT22;55052;52.056;5.296;2023-01-01T14:13:38;14.30;78.20
68235;DHT22;55052;52.056;5.296;2023-01-01T14:16:08;14.30;78.30
68235;DHT22;55052;52.056;5.296;2023-01-01T14:18:44;14.20;78.30
68235;DHT22;55052;52.056;5.296;2023-01-01T14:21:24;14.20;78.50
68235;DHT22;55052;52.056;5.296;2023-01-01T14:23:58;14.20;78.60
68235;DHT22;55052;52.056;5.296;2023-01-01T14:26:27;14.20;78.70
68235;DHT22;55052;52.056;5.296;2023-01-01T14:28:57;14.20;78.90
68235;DHT22;55052;52.056;5.296;2023-01-01T14:31:43;14.20;78.90
68235;DHT22;55052;52.056;5.296;2023-01-01T14:36:55;14.20;79.20
68235;DHT22;55052;52.056;5.296;2023-01-01T14:39:28;14.20;79.20
68235;DHT22;55052;52.056;5.296;2023-01-01T14:41:59;14.20;79.20
68235;DHT22;55052;52.056;5.296;2023-01-01T14:44:37;14.20;79.40
68235;DHT22;55052;52.056;5.296;2023-01-01T14:49:45;14.20;79.50
68235;DHT22;55052;52.056;5.296;2023-01-01T14:52:27;14.10;79.60
68235;DHT22;55052;52.056;5.296;2023-01-01T14:54:58;14.10;79.60
68235;DHT22;55052;52.056;5.296;2023-01-01T14:57:31;14.10;79.70
68235;DHT22;55052;52.056;5.296;2023-01-01T14:59:58;14.10;79.80
68235;DHT22;55052;52.056;5.296;2023-01-01T15:02:27;14.10;80.70
68235;DHT22;55052;52.056;5.296;2023-01-01T15:04:56;14.10;79.90
68235;DHT22;55052;52.056;5.296;2023-01-01T15:07:29;14.10;80.00
68235;DHT22;55052;52.056;5.296;2023-01-01T15:09:58;14.10;80.00
68235;DHT22;55052;52.056;5.296;2023-01-01T15:12:27;14.10;80.00
68235;DHT22;55052;52.056;5.296;2023-01-01T15:14:55;14.00;80.10
68235;DHT22;55052;52.056;5.296;2023-01-01T15:17:24;14.00;80.10
68235;DHT22;55052;52.056;5.296;2023-01-01T15:20:04;14.00;80.30
68235;DHT22;55052;52.056;5.296;2023-01-01T15:22:36;14.00;80.30
68235;DHT22;55052;52.056;5.296;2023-01-01T15:25:05;14.00;80.40
68235;DHT22;55052;52.056;5.296;2023-01-01T15:27:37;13.90;80.40
68235;DHT22;55052;52.056;5.296;2023-01-01T15:30:05;13.90;80.40
68235;DHT22;55052;52.056;5.296;2023-01-01T15:32:39;13.90;80.50
68235;DHT22;55052;52.056;5.296;2023-01-01T15:35:27;13.90;80.60
68235;DHT22;55052;52.056;5.296;2023-01-01T15:38:00;13.80;80.50
68235;DHT22;55052;52.056;5.296;2023-01-01T15:40:32;13.80;80.70
68235;DHT22;55052;52.056;5.296;2023-01-01T15:45:39;13.80;80.80
68235;DHT22;55052;52.056;5.296;2023-01-01T15:50:39;13.80;80.90
68235;DHT22;55052;52.056;5.296;2023-01-01T15:53:19;13.70;80.90
68235;DHT22;55052;52.056;5.296;2023-01-01T15:56:02;13.80;81.10
68235;DHT22;55052;52.056;5.296;2023-01-01T15:58:38;13.70;81.00
68235;DHT22;55052;52.056;5.296;2023-01-01T16:01:12;13.70;81.10
68235;DHT22;55052;52.056;5.296;2023-01-01T16:03:41;13.70;81.20
68235;DHT22;55052;52.056;5.296;2023-01-01T16:06:17;13.70;81.40
68235;DHT22;55052;52.056;5.296;2023-01-01T16:08:45;13.70;81.40
68235;DHT22;55052;52.056;5.296;2023-01-01T16:11:12;13.70;81.40
68235;DHT22;55052;52.056;5.296;2023-01-01T16:13:40;13.70;81.50
68235;DHT22;55052;52.056;5.296;2023-01-01T16:16:37;13.70;81.60
68235;DHT22;55052;52.056;5.296;2023-01-01T16:19:05;13.60;81.60
68235;DHT22;55052;52.056;5.296;2023-01-01T16:21:35;13.60;82.50
68235;DHT22;55052;52.056;5.296;2023-01-01T16:24:02;13.60;81.70
68235;DHT22;55052;52.056;5.296;2023-01-01T16:26:29;13.60;81.70
68235;DHT22;55052;52.056;5.296;2023-01-01T16:28:56;13.60;81.70
68235;DHT22;55052;52.056;5.296;2023-01-01T16:31:25;13.60;81.70
68235;DHT22;55052;52.056;5.296;2023-01-01T16:33:55;13.70;81.80
68235;DHT22;55052;52.056;5.296;2023-01-01T16:36:24;13.60;81.70
68235;DHT22;55052;52.056;5.296;2023-01-01T16:38:53;13.60;81.80
68235;DHT22;55052;52.056;5.296;2023-01-01T16:41:19;13.60;81.80
68235;DHT22;55052;52.056;5.296;2023-01-01T16:43:47;13.60;81.80
68235;DHT22;55052;52.056;5.296;2023-01-01T16:46:14;13.60;81.90
68235;DHT22;55052;52.056;5.296;2023-01-01T16:48:41;13.60;81.90
68235;DHT22;55052;52.056;5.296;2023-01-01T16:51:24;13.60;81.90
68235;DHT22;55052;52.056;5.296;2023-01-01T16:53:51;13.60;81.90
68235;DHT22;55052;52.056;5.296;2023-01-01T16:56:18;13.60;81.90
68235;DHT22;55052;52.056;5.296;2023-01-01T16:58:45;13.60;81.80
68235;DHT22;55052;52.056;5.296;2023-01-01T17:01:16;13.60;81.90
68235;DHT22;55052;52.056;5.296;2023-01-01T17:03:43;13.70;81.90
68235;DHT22;55052;52.056;5.296;2023-01-01T17:06:10;13.70;81.90
68235;DHT22;55052;52.056;5.296;2023-01-01T17:08:37;13.60;81.90
68235;DHT22;55052;52.056;5.296;2023-01-01T17:11:10;13.70;81.90
68235;DHT22;55052;52.056;5.296;2023-01-01T17:13:44;13.70;82.00
68235;DHT22;55052;52.056;5.296;2023-01-01T17:16:12;13.70;81.90
68235;DHT22;55052;52.056;5.296;2023-01-01T17:18:52;13.70;81.80
68235;DHT22;55052;52.056;5.296;2023-01-01T17:21:40;13.70;82.00
68235;DHT22;55052;52.056;5.296;2023-01-01T17:24:06;13.70;82.20
68235;DHT22;55052;52.056;5.296;2023-01-01T17:26:33;13.70;82.20
68235;DHT22;55052;52.056;5.296;2023-01-01T17:29:00;13.70;82.20
68235;DHT22;55052;52.056;5.296;2023-01-01T17:31:28;13.70;82.30
68235;DHT22;55052;52.056;5.296;2023-01-01T17:33:55;13.70;82.30
68235;DHT22;55052;52.056;5.296;2023-01-01T17:36:22;13.70;82.50
68235;DHT22;55052;52.056;5.296;2023-01-01T17:38:49;13.70;82.60
68235;DHT22;55052;52.056;5.296;2023-01-01T17:41:16;13.60;82.70
68235;DHT22;55052;52.056;5.296;2023-01-01T17:43:45;13.60;82.80
68235;DHT22;55052;52.056;5.296;2023-01-01T17:46:26;13.60;83.10
68235;DHT22;55052;52.056;5.296;2023-01-01T17:48:59;13.60;83.30
68235;DHT22;55052;52.056;5.296;2023-01-01T17:51:26;13.60;84.50
68235;DHT22;55052;52.056;5.296;2023-01-01T17:53:54;13.50;83.90
68235;DHT22;55052;52.056;5.296;2023-01-01T17:56:22;13.50;84.10
68235;DHT22;55052;52.056;5.296;2023-01-01T17:58:51;13.50;84.30
68235;DHT22;55052;52.056;5.296;2023-01-01T18:03:53;13.40;84.80
68235;DHT22;55052;52.056;5.296;2023-01-01T18:06:20;13.40;85.30
68235;DHT22;55052;52.056;5.296;2023-01-01T18:08:47;13.40;85.30
68235;DHT22;55052;52.056;5.296;2023-01-01T18:11:14;13.30;85.60
68235;DHT22;55052;52.056;5.296;2023-01-01T18:13:41;13.30;86.00
68235;DHT22;55052;52.056;5.296;2023-01-01T18:16:08;13.30;87.10
68235;DHT22;55052;52.056;5.296;2023-01-01T18:18:36;13.20;86.50
68235;DHT22;55052;52.056;5.296;2023-01-01T18:21:05;13.20;86.70
68235;DHT22;55052;52.056;5.296;2023-01-01T18:23:33;13.20;86.90
68235;DHT22;55052;52.056;5.296;2023-01-01T18:26:02;13.20;87.40
68235;DHT22;55052;52.056;5.296;2023-01-01T18:28:29;13.20;87.60
68235;DHT22;55052;52.056;5.296;2023-01-01T18:31:06;13.20;87.70